Time;durP1;ratioP1;P1;durP2;ratioP2;P2;SDS_P1;SDS_P2;PMS_P1;PMS_P2;Temp;Humidity;BMP_temperature;BMP_pressure;BME280_temperature;BME280_humidity;BME280_pressure;Samples;Min_cycle;Max_cycle;Signal;HPM_P1;HPM_P2
2023/09/08 00:00:47;;;;;;;7.80;7.00;;;18.40;74.30;;;;;;5051640;28;20158;-77
2023/09/08 00:03:13;;;;;;;8.77;6.93;;;18.50;74.10;;;;;;5051334;28;20021;-75
2023/09/08 00:05:39;;;;;;;8.70;6.28;;;18.50;73.80;;;;;;5051422;28;20033;-76
2023/09/08 00:08:04;;;;;;;7.03;6.35;;;18.60;74.10;;;;;;5051559;28;20041;-76
2023/09/08 00:10:31;;;;;;;8.48;6.30;;;18.70;73.70;;;;;;5052574;28;20033;-76
2023/09/08 00:12:56;;;;;;;9.00;6.30;;;18.90;72.20;;;;;;5051400;28;20067;-77
2023/09/08 00:15:23;;;;;;;11.68;6.18;;;18.90;71.30;;;;;;5051463;28;20029;-77
2023/09/08 00:17:50;;;;;;;13.98;7.78;;;19.00;72.10;;;;;;5051377;28;20025;-77
2023/09/08 00:20:16;;;;;;;10.20;6.25;;;19.00;70.40;;;;;;5034510;28;20029;-76
2023/09/08 00:22:41;;;;;;;8.65;6.20;;;18.90;71.70;;;;;;5036472;28;20044;-75
2023/09/08 00:25:07;;;;;;;7.63;5.72;;;19.00;71.20;;;;;;5055561;28;20405;-76
2023/09/08 00:27:32;;;;;;;8.07;6.38;;;18.90;69.70;;;;;;5055300;28;20053;-77
2023/09/08 00:30:01;;;;;;;7.22;6.40;;;18.90;70.20;;;;;;5055509;28;20028;-78
2023/09/08 00:32:27;;;;;;;11.85;6.95;;;18.80;70.80;;;;;;5039109;28;20052;-77
2023/09/08 00:34:52;;;;;;;8.02;6.35;;;18.70;71.00;;;;;;5055305;28;20471;-78
2023/09/08 00:37:18;;;;;;;7.38;6.68;;;18.60;71.60;;;;;;5054599;28;20129;-78
2023/09/08 00:39:43;;;;;;;6.57;5.85;;;18.60;71.30;;;;;;5054671;28;20025;-78
2023/09/08 00:42:09;;;;;;;9.70;5.78;;;18.40;72.30;;;;;;5055135;28;20031;-78
2023/09/08 00:44:38;;;;;;;6.60;6.00;;;18.40;72.60;;;;;;5054974;28;20482;-78
2023/09/08 00:47:03;;;;;;;7.57;6.20;;;18.40;71.90;;;;;;5022070;28;20044;-78
2023/09/08 00:49:30;;;;;;;7.63;6.82;;;18.30;72.00;;;;;;5054662;28;20021;-79
2023/09/08 00:51:56;;;;;;;11.73;6.75;;;18.20;72.40;;;;;;5054846;28;20465;-79
2023/09/08 00:54:21;;;;;;;7.10;6.43;;;18.10;73.20;;;;;;5055026;28;20108;-79
2023/09/08 00:56:49;;;;;;;8.90;6.35;;;18.20;72.70;;;;;;5055185;28;20021;-79
2023/09/08 00:59:15;;;;;;;9.52;6.30;;;18.20;72.30;;;;;;5054521;28;20047;-78
2023/09/08 01:01:41;;;;;;;8.30;6.47;;;18.20;72.80;;;;;;5038213;28;20029;-78
2023/09/08 01:04:09;;;;;;;8.55;6.07;;;18.20;73.40;;;;;;5037670;28;20029;-78
2023/09/08 01:06:35;;;;;;;10.27;6.40;;;18.20;72.50;;;;;;5055025;28;20040;-78
2023/09/08 01:09:00;;;;;;;7.35;6.38;;;18.20;72.20;;;;;;5037518;28;20121;-78
2023/09/08 01:11:26;;;;;;;7.63;6.53;;;18.20;72.90;;;;;;5037885;28;20061;-78
2023/09/08 01:13:51;;;;;;;8.63;6.68;;;18.30;73.50;;;;;;5054066;28;20140;-78
2023/09/08 01:16:17;;;;;;;9.77;6.72;;;18.30;72.80;;;;;;5054516;28;20263;-78
2023/09/08 01:18:45;;;;;;;8.40;6.45;;;18.40;72.00;;;;;;5054046;28;20052;-76
2023/09/08 01:21:45;;;;;;;6.75;5.93;;;18.40;71.90;;;;;;5053855;28;20241;-75
2023/09/08 01:24:20;;;;;;;10.48;6.50;;;18.30;71.80;;;;;;5034618;28;20140;-76
2023/09/08 01:26:47;;;;;;;6.93;6.22;;;18.30;71.90;;;;;;5036505;28;20128;-76
2023/09/08 01:29:14;;;;;;;10.20;6.80;;;18.20;72.10;;;;;;5037803;28;20025;-77
2023/09/08 01:31:40;;;;;;;10.23;6.55;;;18.20;71.80;;;;;;5037664;28;20021;-76
2023/09/08 01:34:06;;;;;;;10.63;6.78;;;18.20;72.70;;;;;;5035982;28;20074;-77
2023/09/08 01:36:34;;;;;;;9.10;6.25;;;18.30;72.10;;;;;;5037655;28;20029;-77
2023/09/08 01:39:01;;;;;;;7.20;6.50;;;18.20;72.10;;;;;;5037526;28;20025;-77
2023/09/08 01:41:26;;;;;;;12.45;6.80;;;18.10;72.30;;;;;;5037189;28;20033;-76
2023/09/08 01:43:52;;;;;;;7.00;6.30;;;18.10;72.70;;;;;;5036954;28;20021;-76
2023/09/08 01:46:18;;;;;;;8.02;6.25;;;18.10;72.60;;;;;;5037135;28;20041;-76
2023/09/08 01:48:43;;;;;;;10.25;6.38;;;18.10;72.80;;;;;;5036849;28;20028;-76
2023/09/08 01:51:09;;;;;;;7.90;6.15;;;18.00;72.70;;;;;;5037072;28;20025;-77
2023/09/08 01:53:35;;;;;;;7.13;6.43;;;18.00;73.20;;;;;;5037280;28;20021;-76
2023/09/08 01:56:01;;;;;;;9.18;6.65;;;18.00;73.00;;;;;;5037037;28;20387;-75
2023/09/08 01:58:27;;;;;;;8.32;6.55;;;18.00;73.00;;;;;;5037056;28;20029;-74
2023/09/08 02:00:52;;;;;;;6.95;6.20;;;18.00;73.50;;;;;;5037077;28;20391;-77
2023/09/08 02:03:19;;;;;;;8.25;6.45;;;18.00;73.40;;;;;;5036928;28;20020;-77
2023/09/08 02:05:45;;;;;;;7.10;5.78;;;17.90;73.90;;;;;;5036178;28;20148;-78
2023/09/08 02:08:12;;;;;;;7.97;6.10;;;17.70;73.50;;;;;;5036704;28;20382;-77
2023/09/08 02:10:40;;;;;;;7.70;6.50;;;17.70;73.90;;;;;;5036808;28;20052;-78
2023/09/08 02:13:07;;;;;;;8.90;6.30;;;17.50;74.90;;;;;;5020096;28;20056;-75
2023/09/08 02:15:36;;;;;;;7.28;5.90;;;17.50;75.40;;;;;;5036691;28;20028;-72
2023/09/08 02:18:01;;;;;;;8.43;6.55;;;17.50;75.30;;;;;;5036725;28;20475;-74
2023/09/08 02:20:27;;;;;;;7.32;6.20;;;17.50;74.60;;;;;;5036617;28;20116;-74
2023/09/08 02:22:54;;;;;;;8.50;6.60;;;17.30;75.30;;;;;;5036624;28;20045;-74
2023/09/08 02:25:20;;;;;;;7.53;6.68;;;17.10;76.30;;;;;;5036491;28;20032;-74
2023/09/08 02:27:45;;;;;;;7.35;6.65;;;17.00;77.40;;;;;;5036286;28;20044;-74
2023/09/08 02:30:11;;;;;;;8.82;7.18;;;16.90;77.80;;;;;;5036576;28;20029;-74
2023/09/08 02:32:37;;;;;;;10.60;7.22;;;16.70;78.40;;;;;;5036509;28;20032;-74
2023/09/08 02:35:03;;;;;;;7.55;6.75;;;16.70;78.40;;;;;;5036518;28;20446;-74
2023/09/08 02:37:28;;;;;;;7.65;6.53;;;16.80;78.50;;;;;;5036381;28;20028;-74
2023/09/08 02:39:54;;;;;;;6.63;5.88;;;16.80;78.40;;;;;;5024378;28;20529;-74
2023/09/08 02:42:19;;;;;;;7.25;6.55;;;16.90;78.40;;;;;;5033315;28;20120;-74
2023/09/08 02:44:45;;;;;;;6.85;5.90;;;17.00;78.10;;;;;;5034851;28;20045;-74
2023/09/08 02:47:10;;;;;;;7.90;7.15;;;17.10;77.80;;;;;;5035799;28;20051;-74
2023/09/08 02:49:36;;;;;;;7.97;6.50;;;17.20;77.30;;;;;;5035818;28;20084;-75
2023/09/08 02:52:02;;;;;;;9.75;6.78;;;17.10;76.90;;;;;;5054012;28;20025;-75
2023/09/08 02:54:28;;;;;;;7.00;6.07;;;17.10;76.80;;;;;;5053310;28;20025;-74
2023/09/08 02:56:53;;;;;;;9.02;6.28;;;17.10;76.90;;;;;;5036100;28;20108;-74
2023/09/08 02:59:19;;;;;;;7.07;6.40;;;17.10;76.90;;;;;;5035750;28;20136;-74
2023/09/08 03:01:44;;;;;;;8.63;7.07;;;17.10;76.80;;;;;;5036070;28;20021;-75
2023/09/08 03:04:10;;;;;;;11.48;6.75;;;17.10;76.90;;;;;;5035891;28;20367;-74
2023/09/08 03:06:36;;;;;;;7.30;6.65;;;17.20;77.00;;;;;;5035698;28;20383;-74
2023/09/08 03:09:01;;;;;;;7.47;6.40;;;17.10;77.10;;;;;;5035817;28;20471;-75
2023/09/08 03:11:27;;;;;;;9.93;6.93;;;17.10;77.20;;;;;;5035763;28;20110;-74
2023/09/08 03:13:52;;;;;;;7.13;6.43;;;17.00;77.30;;;;;;5035440;28;20364;-74
2023/09/08 03:16:18;;;;;;;9.30;7.43;;;17.00;77.40;;;;;;5035459;28;20033;-74
2023/09/08 03:18:43;;;;;;;7.90;6.90;;;17.00;77.50;;;;;;5035557;28;20025;-74
2023/09/08 03:21:09;;;;;;;8.38;6.88;;;17.00;77.60;;;;;;5035545;28;20028;-74
2023/09/08 03:23:39;;;;;;;10.15;7.35;;;17.00;77.70;;;;;;5035429;28;20017;-74
2023/09/08 03:26:05;;;;;;;7.22;6.53;;;17.00;77.80;;;;;;5035408;28;20033;-74
2023/09/08 03:28:32;;;;;;;7.63;6.75;;;16.90;78.00;;;;;;5035236;28;20049;-74
2023/09/08 03:30:57;;;;;;;8.23;7.10;;;16.80;78.30;;;;;;5035459;28;20123;-74
2023/09/08 03:33:23;;;;;;;9.35;7.35;;;16.80;78.50;;;;;;5035349;28;20109;-74
2023/09/08 03:35:48;;;;;;;9.05;7.15;;;16.80;78.80;;;;;;5035165;28;20036;-73
2023/09/08 03:38:14;;;;;;;7.95;7.15;;;16.70;79.00;;;;;;5035143;28;20048;-73
2023/09/08 03:40:40;;;;;;;8.38;7.45;;;16.70;79.10;;;;;;5052828;28;20025;-73
2023/09/08 03:43:06;;;;;;;9.05;8.00;;;16.70;79.30;;;;;;5034996;28;20387;-74
2023/09/08 03:45:32;;;;;;;9.15;6.75;;;16.60;79.30;;;;;;5034979;28;20032;-74
2023/09/08 03:47:57;;;;;;;8.27;7.32;;;16.60;79.40;;;;;;5035014;28;20632;-74
2023/09/08 03:50:23;;;;;;;10.88;8.10;;;16.60;79.40;;;;;;5025460;28;20026;-74
2023/09/08 03:52:49;;;;;;;8.77;7.35;;;16.60;79.50;;;;;;5015015;28;20033;-74
2023/09/08 03:55:15;;;;;;;9.07;7.28;;;16.60;79.70;;;;;;5015212;28;20060;-74
2023/09/08 03:57:40;;;;;;;8.77;7.28;;;16.60;79.70;;;;;;5014166;28;20096;-75
2023/09/08 04:00:07;;;;;;;8.85;7.00;;;16.60;79.70;;;;;;5015050;28;20033;-74
2023/09/08 04:02:33;;;;;;;8.25;7.45;;;16.60;79.60;;;;;;5014762;28;20565;-74
2023/09/08 04:04:58;;;;;;;8.57;7.50;;;16.50;79.70;;;;;;5032530;28;20033;-73
2023/09/08 04:07:24;;;;;;;10.43;7.45;;;16.60;79.60;;;;;;5014847;28;20029;-75
2023/09/08 04:09:49;;;;;;;9.75;7.40;;;16.60;79.60;;;;;;5015009;28;20018;-75
2023/09/08 04:12:15;;;;;;;11.30;8.00;;;16.60;79.70;;;;;;5015153;28;20523;-75
2023/09/08 04:14:41;;;;;;;10.57;7.15;;;16.60;79.70;;;;;;5014699;28;20022;-75
2023/09/08 04:17:06;;;;;;;8.23;7.43;;;16.60;79.70;;;;;;5015007;28;20057;-75
2023/09/08 04:19:32;;;;;;;8.95;7.75;;;16.60;79.20;;;;;;5014933;28;20467;-75
2023/09/08 04:21:57;;;;;;;8.55;7.68;;;16.50;79.40;;;;;;5015015;28;20025;-74
2023/09/08 04:24:23;;;;;;;8.70;7.75;;;16.40;80.00;;;;;;5014902;28;20084;-74
2023/09/08 04:26:48;;;;;;;9.68;7.55;;;16.30;80.20;;;;;;5017304;28;20049;-74
2023/09/08 04:29:14;;;;;;;9.38;7.93;;;16.20;80.50;;;;;;5031666;28;20531;-75
2023/09/08 04:31:39;;;;;;;8.07;7.35;;;16.20;81.70;;;;;;5031682;28;20029;-74
2023/09/08 04:34:05;;;;;;;12.63;8.30;;;16.20;81.10;;;;;;5031463;28;20045;-74
2023/09/08 04:36:30;;;;;;;11.15;8.45;;;16.20;80.80;;;;;;5031433;28;20025;-74
2023/09/08 04:38:56;;;;;;;9.63;8.63;;;16.20;81.50;;;;;;5031269;28;20014;-74
2023/09/08 04:41:22;;;;;;;11.27;8.45;;;16.20;81.60;;;;;;5031232;28;20425;-74
2023/09/08 04:43:47;;;;;;;9.75;8.70;;;16.10;81.40;;;;;;5031275;28;20079;-74
2023/09/08 04:46:13;;;;;;;9.32;8.50;;;16.00;82.10;;;;;;5031112;28;20124;-75
2023/09/08 04:48:39;;;;;;;10.75;8.75;;;16.10;81.50;;;;;;5031132;28;20026;-74
2023/09/08 04:51:04;;;;;;;8.73;7.82;;;16.00;81.70;;;;;;5031338;28;20025;-74
2023/09/08 04:53:30;;;;;;;9.93;8.30;;;16.10;81.80;;;;;;5031064;28;20014;-75
2023/09/08 04:55:55;;;;;;;9.63;8.55;;;16.10;81.80;;;;;;5031126;28;20021;-74
2023/09/08 04:58:21;;;;;;;11.73;8.32;;;16.20;81.50;;;;;;5031095;28;20385;-74
2023/09/08 05:00:47;;;;;;;12.20;9.05;;;16.30;81.00;;;;;;5031070;28;20053;-74
2023/09/08 05:03:12;;;;;;;11.73;8.43;;;16.30;80.70;;;;;;5031020;28;20056;-75
2023/09/08 05:05:39;;;;;;;12.15;9.05;;;16.30;80.80;;;;;;5031099;28;20037;-74
2023/09/08 05:08:04;;;;;;;12.07;8.82;;;16.30;80.90;;;;;;5033481;28;20025;-74
2023/09/08 05:10:30;;;;;;;11.10;8.05;;;16.20;81.30;;;;;;5034624;28;20103;-74
2023/09/08 05:12:56;;;;;;;11.10;9.18;;;16.30;81.40;;;;;;5034829;28;20022;-74
2023/09/08 05:15:21;;;;;;;11.15;8.82;;;16.30;81.70;;;;;;5034526;28;20048;-74
2023/09/08 05:17:47;;;;;;;9.98;8.43;;;16.40;81.50;;;;;;5034382;28;20026;-74
2023/09/08 05:20:13;;;;;;;9.63;8.63;;;16.40;81.60;;;;;;5034397;28;20026;-74
2023/09/08 05:22:39;;;;;;;15.60;9.18;;;16.50;81.50;;;;;;5033553;28;20030;-74
2023/09/08 05:25:04;;;;;;;13.15;8.35;;;16.40;81.30;;;;;;5034116;28;20053;-74
2023/09/08 05:27:31;;;;;;;10.88;8.98;;;16.50;81.20;;;;;;5033781;28;20183;-74
2023/09/08 05:29:57;;;;;;;12.80;8.65;;;16.50;81.40;;;;;;5033810;28;20025;-74
2023/09/08 05:32:22;;;;;;;11.80;8.98;;;16.60;81.30;;;;;;5033740;28;20483;-74
2023/09/08 05:34:48;;;;;;;14.18;8.93;;;16.60;80.90;;;;;;5033804;28;20033;-74
2023/09/08 05:37:13;;;;;;;9.10;8.20;;;16.60;80.90;;;;;;5034038;28;20033;-74
2023/09/08 05:39:39;;;;;;;12.70;8.50;;;16.70;81.00;;;;;;5033716;28;20036;-73
2023/09/08 05:42:05;;;;;;;11.30;8.48;;;16.60;80.90;;;;;;5033805;28;20099;-74
2023/09/08 05:44:30;;;;;;;11.00;8.50;;;16.70;80.80;;;;;;5033668;28;20022;-74
2023/09/08 05:46:56;;;;;;;11.25;8.75;;;16.80;80.80;;;;;;5033603;28;20108;-74
2023/09/08 05:49:21;;;;;;;9.85;8.85;;;16.70;80.80;;;;;;5033788;28;20025;-74
2023/09/08 05:51:47;;;;;;;9.45;8.45;;;16.80;81.50;;;;;;5033723;28;20468;-74
2023/09/08 05:54:12;;;;;;;11.15;8.70;;;16.90;80.50;;;;;;5050023;28;20018;-75
2023/09/08 05:56:39;;;;;;;10.75;8.43;;;16.90;80.40;;;;;;5033487;28;20116;-75
2023/09/08 05:59:05;;;;;;;10.32;8.93;;;16.90;80.40;;;;;;5033368;28;20022;-74
2023/09/08 06:01:31;;;;;;;12.85;8.63;;;17.10;80.40;;;;;;5033470;28;20025;-75
2023/09/08 06:03:57;;;;;;;11.13;9.60;;;17.10;80.40;;;;;;5033189;28;20059;-75
2023/09/08 06:06:22;;;;;;;10.20;8.68;;;17.20;80.20;;;;;;5033397;28;20124;-74
2023/09/08 06:08:48;;;;;;;9.50;8.45;;;17.30;80.00;;;;;;5033409;28;20480;-73
2023/09/08 06:11:14;;;;;;;12.20;9.32;;;17.30;79.80;;;;;;5033487;28;20057;-74
2023/09/08 06:13:39;;;;;;;9.65;8.45;;;17.40;79.70;;;;;;5033204;28;20456;-74
2023/09/08 06:16:05;;;;;;;15.70;8.73;;;17.50;79.40;;;;;;5033093;28;20025;-74
2023/09/08 06:18:31;;;;;;;9.32;8.32;;;17.60;79.50;;;;;;5036792;28;20521;-74
2023/09/08 06:20:57;;;;;;;14.32;8.38;;;17.70;79.10;;;;;;5056531;28;20507;-75
2023/09/08 06:23:22;;;;;;;12.02;8.43;;;17.80;78.70;;;;;;5036727;28;20017;-76
2023/09/08 06:25:49;;;;;;;10.18;9.07;;;17.90;78.50;;;;;;5036464;28;20041;-74
2023/09/08 06:28:14;;;;;;;15.13;8.95;;;18.00;78.20;;;;;;5036669;28;20049;-73
2023/09/08 06:30:41;;;;;;;10.15;8.70;;;18.10;77.90;;;;;;5054407;28;20488;-73
2023/09/08 06:33:10;;;;;;;13.15;9.15;;;18.20;77.60;;;;;;5036576;28;20029;-74
2023/09/08 06:35:39;;;;;;;10.60;8.27;;;18.30;77.80;;;;;;5036203;28;20025;-74
2023/09/08 06:38:04;;;;;;;9.52;8.63;;;18.40;77.70;;;;;;5036274;28;20032;-74
2023/09/08 06:40:30;;;;;;;11.35;7.45;;;18.50;77.70;;;;;;5053587;28;20029;-74
2023/09/08 06:42:56;;;;;;;10.48;8.35;;;18.70;77.40;;;;;;5053758;28;20047;-74
2023/09/08 06:45:22;;;;;;;11.02;8.40;;;18.80;77.00;;;;;;5052169;28;20182;-75
2023/09/08 06:47:50;;;;;;;9.43;8.52;;;18.80;76.70;;;;;;5036020;28;20064;-74
2023/09/08 06:50:15;;;;;;;10.60;8.30;;;18.90;76.50;;;;;;5053536;28;20077;-75
2023/09/08 06:52:41;;;;;;;11.25;8.70;;;19.00;76.10;;;;;;5035843;28;20390;-74
2023/09/08 06:55:07;;;;;;;15.00;9.48;;;19.10;76.20;;;;;;5053564;28;20078;-75
2023/09/08 06:57:33;;;;;;;10.45;8.57;;;19.20;75.90;;;;;;5053360;28;20032;-76
2023/09/08 06:59:59;;;;;;;14.20;9.30;;;19.30;75.90;;;;;;5035743;28;20162;-74
2023/09/08 07:02:24;;;;;;;10.40;8.68;;;19.50;75.60;;;;;;5035616;28;20359;-74
2023/09/08 07:04:50;;;;;;;9.32;8.05;;;19.60;75.00;;;;;;5035621;28;20025;-74
2023/09/08 07:07:18;;;;;;;10.02;9.00;;;19.80;74.60;;;;;;5053025;28;20029;-74
2023/09/08 07:09:43;;;;;;;12.35;8.82;;;19.90;74.20;;;;;;5034893;28;20418;-74
2023/09/08 07:12:09;;;;;;;9.75;8.73;;;20.10;74.00;;;;;;5035403;28;20039;-75
2023/09/08 07:14:34;;;;;;;14.27;8.85;;;20.20;73.80;;;;;;5035103;28;20017;-75
2023/09/08 07:17:00;;;;;;;10.70;8.77;;;20.40;73.80;;;;;;5035264;28;20097;-75
2023/09/08 07:19:27;;;;;;;12.98;8.93;;;20.50;73.80;;;;;;5035553;28;20117;-77
2023/09/08 07:21:53;;;;;;;12.52;8.52;;;20.70;73.50;;;;;;5035431;28;20115;-79
2023/09/08 07:24:18;;;;;;;11.73;7.65;;;20.90;72.90;;;;;;5035371;28;20482;-75
2023/09/08 07:26:44;;;;;;;10.55;8.68;;;21.00;72.30;;;;;;5035065;28;20136;-75
2023/09/08 07:29:11;;;;;;;9.00;8.07;;;21.20;72.10;;;;;;5053217;28;20115;-74
2023/09/08 07:31:38;;;;;;;10.52;9.48;;;21.30;72.00;;;;;;5033827;28;20025;-76
2023/09/08 07:34:03;;;;;;;9.65;8.15;;;21.40;71.70;;;;;;5035409;28;20025;-75
2023/09/08 07:36:29;;;;;;;15.38;8.57;;;21.50;71.60;;;;;;5035463;28;20116;-75
2023/09/08 07:38:55;;;;;;;9.35;8.38;;;21.60;72.00;;;;;;5035033;28;20115;-74
2023/09/08 07:41:20;;;;;;;8.73;7.82;;;21.80;70.30;;;;;;5052757;28;20028;-76
2023/09/08 07:43:46;;;;;;;12.93;8.43;;;21.90;69.70;;;;;;5052817;28;20025;-75
2023/09/08 07:46:11;;;;;;;8.10;7.30;;;21.90;70.00;;;;;;5034638;28;20055;-74
2023/09/08 07:48:37;;;;;;;13.60;8.10;;;22.00;69.80;;;;;;5035111;28;20025;-75
2023/09/08 07:51:03;;;;;;;7.85;6.82;;;22.20;69.40;;;;;;5034524;28;20033;-75
2023/09/08 07:53:29;;;;;;;11.77;7.43;;;22.40;69.20;;;;;;5034974;28;20055;-80
2023/09/08 07:55:54;;;;;;;9.25;7.80;;;22.60;69.20;;;;;;5034953;28;20024;-76
2023/09/08 07:58:22;;;;;;;8.63;7.22;;;22.80;67.50;;;;;;5035004;28;20124;-77
2023/09/08 08:00:48;;;;;;;7.25;6.55;;;23.00;67.40;;;;;;5034592;28;20021;-76
2023/09/08 08:03:14;;;;;;;8.02;7.25;;;23.20;67.00;;;;;;5034554;28;20071;-76
2023/09/08 08:05:39;;;;;;;7.63;6.93;;;23.30;67.80;;;;;;5034671;28;20037;-77
2023/09/08 08:08:06;;;;;;;7.40;6.70;;;23.50;66.50;;;;;;5034928;28;20112;-77
2023/09/08 08:10:32;;;;;;;7.38;6.55;;;23.60;65.90;;;;;;5034745;28;20017;-76
2023/09/08 08:12:57;;;;;;;7.57;6.88;;;23.70;65.60;;;;;;5034629;28;20021;-76
2023/09/08 08:15:37;;;;;;;7.53;6.80;;;23.80;65.40;;;;;;5052121;28;20107;-76
2023/09/08 08:18:04;;;;;;;7.20;6.28;;;23.80;65.60;;;;;;5034751;28;20028;-77
2023/09/08 08:20:31;;;;;;;9.30;7.30;;;24.00;65.60;;;;;;5034742;28;20039;-77
2023/09/08 08:22:57;;;;;;;7.93;7.00;;;24.00;65.10;;;;;;5052275;28;20020;-76
2023/09/08 08:25:23;;;;;;;12.43;7.25;;;23.90;65.10;;;;;;5050556;28;20025;-77
2023/09/08 08:27:48;;;;;;;8.95;7.00;;;23.90;66.50;;;;;;5033712;28;20494;-76
2023/09/08 08:30:14;;;;;;;9.68;7.63;;;24.00;65.00;;;;;;5034233;28;20360;-76
2023/09/08 08:32:40;;;;;;;8.23;7.25;;;24.00;65.40;;;;;;5034652;28;20140;-76
2023/09/08 08:35:05;;;;;;;8.02;7.28;;;24.10;64.80;;;;;;5034831;28;20021;-75
2023/09/08 08:37:32;;;;;;;9.00;7.22;;;24.20;64.40;;;;;;5034111;28;20398;-77
2023/09/08 08:39:58;;;;;;;11.70;6.95;;;24.30;65.40;;;;;;5034113;28;20051;-77
2023/09/08 08:42:31;;;;;;;11.13;7.28;;;24.50;64.70;;;;;;5034339;28;20033;-78
2023/09/08 08:44:58;;;;;;;7.38;6.22;;;24.60;63.60;;;;;;5037901;28;20037;-77
2023/09/08 08:47:26;;;;;;;13.65;7.95;;;24.70;63.10;;;;;;5055889;28;20039;-77
2023/09/08 08:49:54;;;;;;;15.25;7.43;;;24.80;63.30;;;;;;5037732;28;20090;-76
2023/09/08 08:52:20;;;;;;;11.23;7.88;;;24.80;63.60;;;;;;5038178;28;20029;-77
2023/09/08 08:54:46;;;;;;;14.30;8.02;;;24.90;63.40;;;;;;5037695;28;20507;-75
2023/09/08 08:57:13;;;;;;;12.70;7.35;;;25.00;63.80;;;;;;5028675;28;20459;-76
2023/09/08 08:59:41;;;;;;;7.32;6.63;;;25.20;62.70;;;;;;5044393;28;20032;-77
2023/09/08 09:02:08;;;;;;;8.02;6.88;;;25.30;62.80;;;;;;5029250;28;20074;-76
2023/09/08 09:04:37;;;;;;;12.20;6.80;;;25.40;61.80;;;;;;5030714;28;20520;-77
2023/09/08 09:07:03;;;;;;;7.75;7.05;;;25.60;61.40;;;;;;5028371;28;20040;-77
2023/09/08 09:09:29;;;;;;;10.68;6.10;;;25.50;60.60;;;;;;5027243;28;20118;-76
2023/09/08 09:11:55;;;;;;;11.85;6.72;;;25.50;61.00;;;;;;5026927;28;20052;-77
2023/09/08 09:14:22;;;;;;;7.32;5.93;;;25.60;60.50;;;;;;5027500;28;20017;-76
2023/09/08 09:16:49;;;;;;;8.95;6.28;;;25.80;59.50;;;;;;5046162;28;20036;-76
2023/09/08 09:19:27;;;;;;;8.80;6.55;;;25.90;59.30;;;;;;5034168;28;20025;-76
2023/09/08 09:21:57;;;;;;;11.45;6.30;;;26.00;58.80;;;;;;5036861;28;20025;-76
2023/09/08 09:24:33;;;;;;;6.88;5.93;;;26.10;58.40;;;;;;5036981;28;20039;-76
2023/09/08 09:27:01;;;;;;;5.50;4.90;;;26.30;57.40;;;;;;5036881;28;20048;-76
2023/09/08 09:29:28;;;;;;;6.93;5.60;;;26.40;56.30;;;;;;5037187;28;20032;-76
2023/09/08 09:32:16;;;;;;;8.63;5.72;;;26.60;56.10;;;;;;5037674;28;20025;-76
2023/09/08 09:34:56;;;;;;;6.20;5.60;;;26.80;56.30;;;;;;5037416;28;20025;-76
2023/09/08 09:37:22;;;;;;;8.27;5.38;;;26.80;54.90;;;;;;5037610;28;20422;-77
2023/09/08 09:39:52;;;;;;;6.75;5.97;;;26.90;55.90;;;;;;5055091;28;20025;-76
2023/09/08 09:42:19;;;;;;;8.63;6.03;;;27.00;54.70;;;;;;5036688;28;20041;-76
2023/09/08 09:44:48;;;;;;;8.02;6.07;;;27.10;54.50;;;;;;5036750;28;20126;-75
2023/09/08 09:47:13;;;;;;;8.02;5.90;;;27.20;54.10;;;;;;5036728;28;20399;-75
2023/09/08 09:49:44;;;;;;;8.38;5.80;;;27.30;53.70;;;;;;5037108;28;20021;-75
2023/09/08 09:52:13;;;;;;;6.68;5.68;;;27.40;52.30;;;;;;5036692;28;20033;-76
2023/09/08 09:54:43;;;;;;;6.07;5.38;;;27.30;52.90;;;;;;5053469;28;20696;-76
2023/09/08 09:57:14;;;;;;;6.78;5.28;;;27.50;52.20;;;;;;5036813;28;20417;-75
2023/09/08 09:59:43;;;;;;;6.88;5.10;;;27.70;53.00;;;;;;5036724;28;20047;-76
2023/09/08 10:02:12;;;;;;;5.13;4.70;;;28.00;51.80;;;;;;5036279;28;20035;-76
2023/09/08 10:04:40;;;;;;;6.07;5.43;;;28.20;51.20;;;;;;5036662;28;20021;-75
2023/09/08 10:07:06;;;;;;;5.85;5.00;;;28.30;49.30;;;;;;5036334;28;20060;-78
2023/09/08 10:09:32;;;;;;;6.13;4.85;;;28.20;49.20;;;;;;5036687;28;20489;-78
2023/09/08 10:12:02;;;;;;;8.75;5.50;;;28.30;49.50;;;;;;5033651;28;20033;-78
2023/09/08 10:14:30;;;;;;;7.75;5.35;;;28.40;47.70;;;;;;5025030;28;20017;-78
2023/09/08 10:16:59;;;;;;;6.95;4.93;;;28.20;48.20;;;;;;5024026;28;20383;-75
2023/09/08 10:19:25;;;;;;;5.80;5.03;;;28.30;47.60;;;;;;5024213;28;20399;-77
2023/09/08 10:21:52;;;;;;;7.80;4.65;;;28.40;47.80;;;;;;5024005;28;20028;-77
2023/09/08 10:24:23;;;;;;;6.00;4.85;;;28.70;46.90;;;;;;5025962;28;20025;-76
2023/09/08 10:27:03;;;;;;;7.78;5.13;;;28.70;46.30;;;;;;5024103;28;20060;-76
2023/09/08 10:29:31;;;;;;;7.65;4.50;;;28.80;45.30;;;;;;5024449;28;20022;-77
2023/09/08 10:31:57;;;;;;;13.75;5.57;;;29.00;46.50;;;;;;5027388;28;20022;-74
2023/09/08 10:34:25;;;;;;;6.47;4.80;;;29.30;46.30;;;;;;5035905;28;20437;-77
2023/09/08 10:36:50;;;;;;;6.45;4.90;;;29.50;43.70;;;;;;5036161;28;20463;-76
2023/09/08 10:39:39;;;;;;;9.30;4.97;;;29.60;43.30;;;;;;5036309;28;20040;-77
2023/09/08 10:42:17;;;;;;;7.80;5.00;;;29.60;43.00;;;;;;5053628;28;20025;-76
2023/09/08 10:44:51;;;;;;;6.43;4.57;;;29.60;42.50;;;;;;5035579;28;20501;-76
2023/09/08 10:47:24;;;;;;;8.07;4.63;;;29.60;43.10;;;;;;5035707;28;20045;-76
2023/09/08 10:49:53;;;;;;;6.43;4.78;;;29.60;42.80;;;;;;5035933;28;20032;-76
2023/09/08 10:52:21;;;;;;;6.85;5.22;;;29.70;41.70;;;;;;5035665;28;20040;-76
2023/09/08 10:54:52;;;;;;;8.25;5.03;;;29.80;42.70;;;;;;5053203;28;20031;-76
2023/09/08 10:57:20;;;;;;;5.35;4.85;;;29.60;42.90;;;;;;5035773;28;20027;-76
2023/09/08 11:00:11;;;;;;;9.25;5.72;;;29.70;41.90;;;;;;5035871;28;20029;-76
2023/09/08 11:02:39;;;;;;;7.47;5.40;;;30.00;42.20;;;;;;5053597;28;20036;-76
2023/09/08 11:05:16;;;;;;;9.40;5.25;;;30.10;41.90;;;;;;5035290;28;20202;-75
2023/09/08 11:07:43;;;;;;;5.13;4.72;;;30.20;42.00;;;;;;5053191;28;20039;-77
2023/09/08 11:10:10;;;;;;;8.18;5.25;;;30.30;42.00;;;;;;5035583;28;20099;-73
2023/09/08 11:12:36;;;;;;;5.45;4.80;;;30.30;42.40;;;;;;5053254;28;20039;-75
2023/09/08 11:15:08;;;;;;;8.27;5.00;;;30.40;42.60;;;;;;5035500;28;20029;-74
2023/09/08 11:17:35;;;;;;;6.13;4.45;;;30.70;42.50;;;;;;5052750;28;20021;-75
2023/09/08 11:20:08;;;;;;;7.38;5.32;;;30.90;41.20;;;;;;5034993;28;20021;-75
2023/09/08 11:22:34;;;;;;;10.23;4.88;;;31.00;40.30;;;;;;5034958;28;20024;-75
2023/09/08 11:25:04;;;;;;;6.68;4.45;;;31.20;40.20;;;;;;5035443;28;20466;-74
2023/09/08 11:27:30;;;;;;;5.13;4.60;;;31.30;39.60;;;;;;5052740;28;20052;-73
2023/09/08 11:29:57;;;;;;;7.22;4.60;;;31.60;39.60;;;;;;5035113;28;20031;-75
2023/09/08 11:32:23;;;;;;;6.38;4.90;;;32.00;38.50;;;;;;5035043;28;20033;-74
2023/09/08 11:34:49;;;;;;;6.53;4.45;;;32.20;37.60;;;;;;5034871;28;20475;-75
2023/09/08 11:37:17;;;;;;;5.32;4.57;;;32.30;37.50;;;;;;5034971;28;20123;-74
2023/09/08 11:39:46;;;;;;;5.38;4.88;;;32.60;37.20;;;;;;5035022;28;20025;-75
2023/09/08 11:42:14;;;;;;;6.18;4.97;;;32.70;37.30;;;;;;5034974;28;20067;-78
2023/09/08 11:44:41;;;;;;;7.72;4.45;;;32.80;36.50;;;;;;5034948;28;20110;-76
2023/09/08 11:47:07;;;;;;;6.25;4.68;;;32.90;37.20;;;;;;5034509;28;20086;-75
2023/09/08 11:49:43;;;;;;;7.75;5.28;;;33.00;35.90;;;;;;5034657;28;20021;-75
2023/09/08 11:52:09;;;;;;;5.22;4.72;;;32.70;35.50;;;;;;5034501;28;20108;-74
2023/09/08 11:54:36;;;;;;;7.88;5.05;;;32.70;36.70;;;;;;5034888;28;20427;-76
2023/09/08 11:57:07;;;;;;;6.70;5.15;;;32.60;36.10;;;;;;5052796;28;20033;-76
2023/09/08 11:59:34;;;;;;;9.10;6.40;;;32.30;36.30;;;;;;5035019;28;20032;-73
2023/09/08 12:02:01;;;;;;;8.68;5.05;;;31.90;36.70;;;;;;5034499;28;20043;-73
2023/09/08 12:04:28;;;;;;;6.05;5.10;;;31.80;37.00;;;;;;5034658;28;20031;-74
2023/09/08 12:06:57;;;;;;;8.88;5.45;;;31.90;37.50;;;;;;5034665;28;20033;-77
2023/09/08 12:09:23;;;;;;;5.30;4.45;;;32.00;37.30;;;;;;5052396;28;20108;-75
2023/09/08 12:11:49;;;;;;;5.55;4.78;;;32.00;37.60;;;;;;5052339;28;20040;-75
2023/09/08 12:14:15;;;;;;;5.40;4.88;;;32.10;36.80;;;;;;5034624;28;20021;-76
2023/09/08 12:16:41;;;;;;;5.47;4.85;;;32.30;36.80;;;;;;5051346;28;20051;-74
2023/09/08 12:19:08;;;;;;;8.82;4.78;;;32.60;35.60;;;;;;5054859;28;20063;-74
2023/09/08 12:21:54;;;;;;;7.50;4.63;;;32.50;35.70;;;;;;5038964;28;20044;-74
2023/09/08 12:24:23;;;;;;;5.57;4.57;;;32.90;34.90;;;;;;5038840;28;20028;-73
2023/09/08 12:26:49;;;;;;;6.55;4.40;;;33.20;35.20;;;;;;5056016;28;20243;-74
2023/09/08 12:29:15;;;;;;;4.70;4.20;;;33.50;34.80;;;;;;5038674;28;20028;-76
2023/09/08 12:31:40;;;;;;;5.53;4.47;;;33.90;34.00;;;;;;5038182;28;20029;-74
2023/09/08 12:34:09;;;;;;;6.13;4.40;;;34.30;33.60;;;;;;5038371;28;20021;-74
2023/09/08 12:36:36;;;;;;;5.70;5.10;;;34.50;31.40;;;;;;5037892;28;20025;-74
2023/09/08 12:39:04;;;;;;;5.80;4.53;;;34.40;31.20;;;;;;5021678;28;20059;-75
2023/09/08 12:41:30;;;;;;;6.15;4.82;;;34.30;31.40;;;;;;5055910;28;20494;-76